Flight Track Log - Related Links

Times and Time Zones

All times are in EDT time to prevent confusion due to time zone crossing. See the N683FE flight status page for this flight to view local times or setup timezone preferences in your user account.

Time Position Orientation Groundspeed Altitude Reporting Facility
EDT Latitude Longitude Course Direction KTS MPH feet Rate Location/Type
Wed 11:12:02 PM 38.9370 -77.5160 243° Southwest 1,900  Level FlightAware ADS-B
Wed 11:12:32 PM 38.9270 -77.5520 250° West 2,700 319 Climbing FlightAware ADS-B
Wed 11:13:02 PM 38.9190 -77.5980 257° West 4,600 306 Climbing FlightAware ADS-B
Wed 11:13:27 PM 38.9140 -77.6400 261° West 6,900 272 Climbing FlightAware ADS-B
Wed 11:13:57 PM 38.9080 -77.6860 260° West 8,800 230 Climbing FlightAware ADS-B
Wed 11:14:12 PM 38.9060 -77.7100 264° West 9,900 194 Climbing FlightAware ADS-B
Wed 11:15:02 PM 38.9150 -77.7970 278° West 12,800 173 Climbing FlightAware ADS-B
Wed 11:15:47 PM 38.9250 -77.8880 278° West 14,500 117 Climbing FlightAware ADS-B
Wed 11:16:32 PM 38.9370 -77.9910 279° West 16,800 84 Climbing FlightAware ADS-B
Wed 11:17:12 PM 38.9480 -78.0890 278° West 19,100 38 Climbing FlightAware ADS-B
Wed 11:17:52 PM 38.9580 -78.1830 278° West 21,100 -11 Climbing FlightAware ADS-B
Wed 11:18:37 PM 38.9640 -78.3000 274° West 23,300 -54 Climbing FlightAware ADS-B
Wed 11:19:17 PM 38.9670 -78.4050 272° West 25,000 -103 Climbing FlightAware ADS-B
Wed 11:19:57 PM 38.9700 -78.5100 272° West 26,600 -142 Climbing FlightAware ADS-B
Wed 11:20:42 PM 38.9730 -78.6300 272° West 28,300 -180 Climbing FlightAware ADS-B
Wed 11:21:22 PM 38.9760 -78.7400 272° West 30,300 -222 Climbing FlightAware ADS-B
Wed 11:22:02 PM 38.9790 -78.8430 272° West 31,800 -272 Climbing FlightAware ADS-B
Wed 11:22:47 PM 38.9820 -78.9600 272° West 33,200 -311 Climbing FlightAware ADS-B
Wed 11:23:27 PM 38.9840 -79.0670 271° West 34,400 -351 Climbing FlightAware ADS-B
Wed 11:24:12 PM 38.9870 -79.1840 272° West 35,400 -386 Climbing FlightAware ADS-B
Wed 11:24:52 PM 38.9890 -79.2870 271° West 36,000 -418 Climbing FlightAware ADS-B
Wed 11:25:37 PM 38.9920 -79.4050 272° West 36,000 -440 Level FlightAware ADS-B
Wed 11:26:17 PM 38.9940 -79.5110 271° West 36,000 -448 Level FlightAware ADS-B
Wed 11:26:57 PM 38.9960 -79.6130 271° West 36,000 -456 Level FlightAware ADS-B
Wed 11:27:42 PM 38.9980 -79.7300 271° West 36,000 -464 Level FlightAware ADS-B
Wed 11:28:22 PM 39.0000 -79.8310 271° West 36,000 -474 Level FlightAware ADS-B
Wed 11:28:57 PM 39.0020 -79.9250 272° West 36,000 -483 Level FlightAware ADS-B
Wed 11:31:37 PM 39.0080 -80.3280 271° West 36,000 -491 Level FlightAware ADS-B
Wed 11:34:42 PM 39.0990 -80.8100 284° West 36,000 -530 Level FlightAware ADS-B
Wed 11:35:22 PM 39.1250 -80.9040 290° West 36,000 -586 Level FlightAware ADS-B
Wed 11:36:02 PM 39.1520 -81.0050 289° West 36,000 -599 Level FlightAware ADS-B
Wed 11:36:47 PM 39.1810 -81.1140 289° West 35,900 -613 Descending FlightAware ADS-B
Wed 11:37:27 PM 39.2080 -81.2130 289° West 35,200 -626 Descending FlightAware ADS-B
Wed 11:38:12 PM 39.2390 -81.3270 289° West 34,400 -616 Descending FlightAware ADS-B
Wed 11:38:52 PM 39.2650 -81.4260 289° West 34,000 -603 Descending FlightAware ADS-B
Wed 11:39:32 PM 39.2910 -81.5250 289° West 34,000 -603 Level FlightAware ADS-B
Wed 11:40:17 PM 39.3200 -81.6330 289° West 34,000 -619 Level FlightAware ADS-B
Wed 11:40:57 PM 39.3450 -81.7310 288° West 34,000 -638 Level FlightAware ADS-B
Wed 11:41:42 PM 39.3760 -81.8470 289° West 34,000 -656 Level FlightAware ADS-B
Wed 11:42:22 PM 39.4020 -81.9490 288° West 34,000 -678 Level FlightAware ADS-B
Wed 11:43:02 PM 39.4280 -82.0470 289° West 34,000 -698 Level FlightAware ADS-B
Wed 11:43:47 PM 39.4570 -82.1600 288° West 34,000 -720 Level FlightAware ADS-B
Wed 11:44:27 PM 39.4830 -82.2620 288° West 34,000 -746 Level FlightAware ADS-B
Wed 11:45:12 PM 39.5140 -82.3790 289° West 34,000 -771 Level FlightAware ADS-B
Wed 11:45:52 PM 39.5400 -82.4830 288° West 34,000 -801 Level FlightAware ADS-B
Wed 11:46:32 PM 39.5660 -82.5840 288° West 34,000 -830 Level FlightAware ADS-B
Wed 11:47:17 PM 39.5930 -82.6930 288° West 34,000 -861 Level FlightAware ADS-B
Wed 11:47:57 PM 39.6200 -82.8000 288° West 34,000 -899 Level FlightAware ADS-B
Wed 11:48:37 PM 39.6470 -82.9060 288° West 34,000 -935 Level FlightAware ADS-B
Wed 11:49:22 PM 39.6760 -83.0230 288° West 34,000 -975 Level FlightAware ADS-B
Wed 11:50:02 PM 39.7010 -83.1250 288° West 34,000 -1,023 Level FlightAware ADS-B
Wed 11:50:42 PM 39.7270 -83.2270 288° West 34,000 -1,071 Level FlightAware ADS-B
Wed 11:51:27 PM 39.7560 -83.3450 288° West 34,000 -1,123 Level FlightAware ADS-B
Wed 11:52:12 PM 39.7850 -83.4650 287° West 34,000 -1,188 Level FlightAware ADS-B
Wed 11:52:52 PM 39.8090 -83.5660 287° West 34,000 -1,261 Level FlightAware ADS-B
Wed 11:53:52 PM 39.8480 -83.7250 288° West 33,900 -1,333 Descending FlightAware ADS-B
Wed 11:54:32 PM 39.8740 -83.8310 288° West 33,300 -1,450 Descending FlightAware ADS-B
Wed 11:55:12 PM 39.8990 -83.9350 287° West 32,500 -1,487 Descending FlightAware ADS-B
Wed 11:55:57 PM 39.9260 -84.0470 287° West 31,600 -1,508 Descending FlightAware ADS-B
Wed 11:56:37 PM 39.9500 -84.1490 287° West 30,700 -1,535 Descending FlightAware ADS-B
Wed 11:57:22 PM 39.9770 -84.2630 287° West 29,700 -1,551 Descending FlightAware ADS-B
Wed 11:57:57 PM 39.9960 -84.3440 287° West 29,000 -1,574 Descending FlightAware ADS-B
Wed 11:58:47 PM 40.0250 -84.4690 287° West 27,900 -1,608 Descending FlightAware ADS-B
Wed 11:59:27 PM 40.0470 -84.5620 287° West 27,100 -1,651 Descending FlightAware ADS-B
Thu 12:00:07 AM 40.0710 -84.6630 287° West 26,100 -1,711 Descending FlightAware ADS-B
Thu 12:00:52 AM 40.0940 -84.7660 286° West 25,100 -1,744 Descending FlightAware ADS-B
Thu 12:01:32 AM 40.1140 -84.8520 287° West 24,300 -1,831 Descending FlightAware ADS-B
Thu 12:02:27 AM 40.1200 -84.9760 274° West 22,800 -1,977 Descending FlightAware ADS-B
Thu 12:03:27 AM 40.1170 -85.1020 268° West 20,600 -2,136 Descending FlightAware ADS-B
Thu 12:04:25 AM 40.1142 -85.2139 268° West 350 403 18,600 -2,067 Descending Indianapolis Center
Thu 12:05:26 AM 40.1108 -85.3350 268° West 335 386 16,500 -2,066 Descending Indianapolis Center
Thu 12:06:27 AM 40.1075 -85.4536 268° West 327 376 14,400 -2,066 Descending Indianapolis Center
Thu 12:07:28 AM 40.1028 -85.5672 267° West 316 364 12,300 -1,525 Descending Indianapolis Center
Thu 12:08:29 AM 40.1008 -85.6753 269° West 303 349 11,300 -836 Descending Indianapolis Center
Thu 12:09:30 AM 40.0481 -85.7297 218° Southwest 254 292 10,600 -1,131 Descending Indianapolis Center
Thu 12:10:31 AM 39.9889 -85.7650 205° Southwest 235 270 9,000 -1,279 Descending Indianapolis Center
Thu 12:11:32 AM 39.9231 -85.7681 182° South 236 272 8,000 -492 Descending Indianapolis Center
Thu 12:12:33 AM 39.8681 -85.7694 181° South 210 242 8,000 -197 Level Indianapolis Center
Thu 12:13:34 AM 39.8233 -85.8039 211° Southwest 184 212 7,600 -689 Descending Indianapolis Center
Thu 12:14:35 AM 39.7914 -85.8408 222° Southwest 179 206 6,600 -689 Descending Indianapolis Center
Thu 12:15:36 AM 39.7531 -85.8967 228° Southwest 177 204 6,200 -492 Descending Indianapolis Center
Thu 12:17:50 AM 39.7167 -86.0167 249° West 193 222 5,000 -369 Descending Indianapolis TRACON
Thu 12:18:51 AM 39.7333 -86.0833 288° West 214 246 5,000  Level Indianapolis TRACON
Thu 12:19:56 AM 39.7833 -86.1000 346° North 245 282 5,000  Level Indianapolis TRACON
Thu 12:20:57 AM 39.8167 -86.0167 62° Northeast 245 282 5,000  Level Indianapolis TRACON
Thu 12:21:57 AM 39.8667 -85.9667 38° Northeast 248 285 5,000  Level Indianapolis TRACON
Thu 12:22:57 AM 39.9000 -86.0000 323° Northwest 194 223 5,000 -250 Level Indianapolis TRACON
Thu 12:23:57 AM 39.8833 -86.0667 252° West 170 196 4,500 -526 Descending Indianapolis TRACON
Thu 12:24:51 AM 39.8667 -86.1000 237° Southwest 159 183 4,000 -474 Descending Indianapolis TRACON
Thu 12:25:51 AM 39.8333 -86.1500 229° Southwest 165 190 3,600 -400 Descending Indianapolis TRACON

Login

Don't have an account? Register now (free) for customized features, flight alerts, and more!